sensor_id;sensor_type;location;lat;lon;timestamp;temperature;humidity
39099;DHT22;24844;52.380;7.018;2023-06-22T00:00:44;20.00;99.90
39099;DHT22;24844;52.380;7.018;2023-06-22T00:03:10;19.90;99.90
39099;DHT22;24844;52.380;7.018;2023-06-22T00:05:36;20.00;99.90
39099;DHT22;24844;52.380;7.018;2023-06-22T00:08:04;19.90;99.90
39099;DHT22;24844;52.380;7.018;2023-06-22T00:10:30;19.90;99.90
39099;DHT22;24844;52.380;7.018;2023-06-22T00:12:56;19.80;99.90
39099;DHT22;24844;52.380;7.018;2023-06-22T00:15:21;19.90;99.90
39099;DHT22;24844;52.380;7.018;2023-06-22T00:17:47;19.90;99.90
39099;DHT22;24844;52.380;7.018;2023-06-22T00:20:13;19.80;99.90
39099;DHT22;24844;52.380;7.018;2023-06-22T00:22:40;19.70;99.90
39099;DHT22;24844;52.380;7.018;2023-06-22T00:25:08;19.70;99.90
39099;DHT22;24844;52.380;7.018;2023-06-22T00:27:35;19.70;99.90
39099;DHT22;24844;52.380;7.018;2023-06-22T00:30:01;19.70;99.90
39099;DHT22;24844;52.380;7.018;2023-06-22T00:32:26;19.60;99.90
39099;DHT22;24844;52.380;7.018;2023-06-22T00:34:52;19.60;99.90
39099;DHT22;24844;52.380;7.018;2023-06-22T00:37:18;19.60;99.90
39099;DHT22;24844;52.380;7.018;2023-06-22T00:39:43;19.50;99.90
39099;DHT22;24844;52.380;7.018;2023-06-22T00:42:09;19.50;99.90
39099;DHT22;24844;52.380;7.018;2023-06-22T00:44:38;19.40;99.90
39099;DHT22;24844;52.380;7.018;2023-06-22T00:47:03;19.40;99.90
39099;DHT22;24844;52.380;7.018;2023-06-22T00:49:30;19.30;99.90
39099;DHT22;24844;52.380;7.018;2023-06-22T00:51:57;19.30;99.90
39099;DHT22;24844;52.380;7.018;2023-06-22T00:54:24;19.20;99.90
39099;DHT22;24844;52.380;7.018;2023-06-22T00:56:54;19.20;99.90
39099;DHT22;24844;52.380;7.018;2023-06-22T00:59:21;19.10;99.90
39099;DHT22;24844;52.380;7.018;2023-06-22T01:01:47;19.00;99.90
39099;DHT22;24844;52.380;7.018;2023-06-22T01:04:13;19.10;99.90
39099;DHT22;24844;52.380;7.018;2023-06-22T01:06:55;19.00;99.90
39099;DHT22;24844;52.380;7.018;2023-06-22T01:09:27;19.10;99.90
39099;DHT22;24844;52.380;7.018;2023-06-22T01:12:01;19.10;99.90
39099;DHT22;24844;52.380;7.018;2023-06-22T01:14:43;19.00;99.90
39099;DHT22;24844;52.380;7.018;2023-06-22T01:17:12;19.10;99.90
39099;DHT22;24844;52.380;7.018;2023-06-22T01:19:52;19.10;99.90
39099;DHT22;24844;52.380;7.018;2023-06-22T01:22:25;19.10;99.90
39099;DHT22;24844;52.380;7.018;2023-06-22T01:25:09;19.00;99.90
39099;DHT22;24844;52.380;7.018;2023-06-22T01:27:39;19.00;99.90
39099;DHT22;24844;52.380;7.018;2023-06-22T01:30:11;19.00;99.90
39099;DHT22;24844;52.380;7.018;2023-06-22T01:32:40;19.00;99.90
39099;DHT22;24844;52.380;7.018;2023-06-22T01:35:09;18.90;99.90
39099;DHT22;24844;52.380;7.018;2023-06-22T01:37:37;18.80;99.90
39099;DHT22;24844;52.380;7.018;2023-06-22T01:40:04;18.80;99.90
39099;DHT22;24844;52.380;7.018;2023-06-22T01:42:31;18.70;99.90
39099;DHT22;24844;52.380;7.018;2023-06-22T01:44:58;18.70;99.90
39099;DHT22;24844;52.380;7.018;2023-06-22T01:47:25;18.60;99.90
39099;DHT22;24844;52.380;7.018;2023-06-22T01:49:51;18.60;99.90
39099;DHT22;24844;52.380;7.018;2023-06-22T01:52:17;18.50;99.90
39099;DHT22;24844;52.380;7.018;2023-06-22T01:54:43;18.50;99.90
39099;DHT22;24844;52.380;7.018;2023-06-22T01:57:08;18.50;99.90
39099;DHT22;24844;52.380;7.018;2023-06-22T01:59:44;18.40;99.90
39099;DHT22;24844;52.380;7.018;2023-06-22T02:02:15;18.40;99.90
39099;DHT22;24844;52.380;7.018;2023-06-22T02:04:54;18.30;99.90
39099;DHT22;24844;52.380;7.018;2023-06-22T02:07:28;18.20;99.90
39099;DHT22;24844;52.380;7.018;2023-06-22T02:09:56;18.20;99.90
39099;DHT22;24844;52.380;7.018;2023-06-22T02:12:25;18.10;99.90
39099;DHT22;24844;52.380;7.018;2023-06-22T02:14:53;18.10;99.90
39099;DHT22;24844;52.380;7.018;2023-06-22T02:17:19;18.20;99.90
39099;DHT22;24844;52.380;7.018;2023-06-22T02:19:44;18.10;99.90
39099;DHT22;24844;52.380;7.018;2023-06-22T02:22:10;18.20;99.90
39099;DHT22;24844;52.380;7.018;2023-06-22T02:24:36;18.10;99.90
39099;DHT22;24844;52.380;7.018;2023-06-22T02:27:02;18.20;99.90
39099;DHT22;24844;52.380;7.018;2023-06-22T02:29:28;18.20;99.90
39099;DHT22;24844;52.380;7.018;2023-06-22T02:31:54;18.20;99.90
39099;DHT22;24844;52.380;7.018;2023-06-22T02:34:21;18.20;99.90
39099;DHT22;24844;52.380;7.018;2023-06-22T02:36:48;18.20;99.90
39099;DHT22;24844;52.380;7.018;2023-06-22T02:39:21;18.20;99.90
39099;DHT22;24844;52.380;7.018;2023-06-22T02:41:51;18.20;99.90
39099;DHT22;24844;52.380;7.018;2023-06-22T02:44:17;18.10;99.90
39099;DHT22;24844;52.380;7.018;2023-06-22T02:46:43;18.20;99.90
39099;DHT22;24844;52.380;7.018;2023-06-22T02:49:10;18.40;99.90
39099;DHT22;24844;52.380;7.018;2023-06-22T02:51:46;18.40;99.90
39099;DHT22;24844;52.380;7.018;2023-06-22T02:54:12;18.40;99.90
39099;DHT22;24844;52.380;7.018;2023-06-22T02:56:37;18.40;99.90
39099;DHT22;24844;52.380;7.018;2023-06-22T02:59:03;18.40;99.90
39099;DHT22;24844;52.380;7.018;2023-06-22T03:01:29;18.40;99.90
39099;DHT22;24844;52.380;7.018;2023-06-22T03:03:58;18.40;99.90
39099;DHT22;24844;52.380;7.018;2023-06-22T03:06:25;18.40;99.90
39099;DHT22;24844;52.380;7.018;2023-06-22T03:08:58;18.40;99.90
39099;DHT22;24844;52.380;7.018;2023-06-22T03:11:24;18.50;99.90
39099;DHT22;24844;52.380;7.018;2023-06-22T03:13:50;18.40;99.90
39099;DHT22;24844;52.380;7.018;2023-06-22T03:16:17;18.40;99.90
39099;DHT22;24844;52.380;7.018;2023-06-22T03:18:43;18.30;99.90
39099;DHT22;24844;52.380;7.018;2023-06-22T03:21:09;18.30;99.90
39099;DHT22;24844;52.380;7.018;2023-06-22T03:23:34;18.40;99.90
39099;DHT22;24844;52.380;7.018;2023-06-22T03:26:00;18.50;99.90
39099;DHT22;24844;52.380;7.018;2023-06-22T03:28:26;18.40;99.90
39099;DHT22;24844;52.380;7.018;2023-06-22T03:30:52;18.40;99.90
39099;DHT22;24844;52.380;7.018;2023-06-22T03:33:17;18.40;99.90
39099;DHT22;24844;52.380;7.018;2023-06-22T03:35:43;18.50;99.90
39099;DHT22;24844;52.380;7.018;2023-06-22T03:38:08;18.40;99.90
39099;DHT22;24844;52.380;7.018;2023-06-22T03:40:34;18.50;99.90
39099;DHT22;24844;52.380;7.018;2023-06-22T03:43:00;18.60;99.90
39099;DHT22;24844;52.380;7.018;2023-06-22T03:45:25;18.40;99.90
39099;DHT22;24844;52.380;7.018;2023-06-22T03:47:51;18.50;99.90
39099;DHT22;24844;52.380;7.018;2023-06-22T03:50:16;18.40;99.90
39099;DHT22;24844;52.380;7.018;2023-06-22T03:52:42;18.50;99.90
39099;DHT22;24844;52.380;7.018;2023-06-22T03:55:08;18.50;99.90
39099;DHT22;24844;52.380;7.018;2023-06-22T03:57:34;18.70;99.90
39099;DHT22;24844;52.380;7.018;2023-06-22T04:00:01;18.60;99.90
39099;DHT22;24844;52.380;7.018;2023-06-22T04:02:28;18.40;99.90
39099;DHT22;24844;52.380;7.018;2023-06-22T04:04:53;18.50;99.90
39099;DHT22;24844;52.380;7.018;2023-06-22T04:07:19;18.60;99.90
39099;DHT22;24844;52.380;7.018;2023-06-22T04:09:44;18.70;99.90
39099;DHT22;24844;52.380;7.018;2023-06-22T04:12:10;18.90;99.90
39099;DHT22;24844;52.380;7.018;2023-06-22T04:14:36;19.00;99.90
39099;DHT22;24844;52.380;7.018;2023-06-22T04:17:01;19.00;99.90
39099;DHT22;24844;52.380;7.018;2023-06-22T04:19:27;19.10;99.90
39099;DHT22;24844;52.380;7.018;2023-06-22T04:21:53;19.10;99.90
39099;DHT22;24844;52.380;7.018;2023-06-22T04:24:18;19.10;99.90
39099;DHT22;24844;52.380;7.018;2023-06-22T04:26:44;19.30;99.90
39099;DHT22;24844;52.380;7.018;2023-06-22T04:29:11;19.40;99.90
39099;DHT22;24844;52.380;7.018;2023-06-22T04:31:37;19.40;99.90
39099;DHT22;24844;52.380;7.018;2023-06-22T04:34:07;19.60;99.90
39099;DHT22;24844;52.380;7.018;2023-06-22T04:36:40;19.70;99.90
39099;DHT22;24844;52.380;7.018;2023-06-22T04:39:08;19.70;99.90
39099;DHT22;24844;52.380;7.018;2023-06-22T04:41:35;19.80;99.90
39099;DHT22;24844;52.380;7.018;2023-06-22T04:44:34;19.80;99.90
39099;DHT22;24844;52.380;7.018;2023-06-22T04:47:01;19.90;99.90
39099;DHT22;24844;52.380;7.018;2023-06-22T04:49:30;19.90;99.90
39099;DHT22;24844;52.380;7.018;2023-06-22T04:52:00;20.00;99.90
39099;DHT22;24844;52.380;7.018;2023-06-22T04:54:26;20.00;99.90
39099;DHT22;24844;52.380;7.018;2023-06-22T04:56:52;19.90;99.90
39099;DHT22;24844;52.380;7.018;2023-06-22T04:59:26;20.10;99.90
39099;DHT22;24844;52.380;7.018;2023-06-22T05:01:54;20.00;99.90
39099;DHT22;24844;52.380;7.018;2023-06-22T05:04:20;20.00;99.90
39099;DHT22;24844;52.380;7.018;2023-06-22T05:06:45;20.00;99.90
39099;DHT22;24844;52.380;7.018;2023-06-22T05:09:11;19.90;99.90
39099;DHT22;24844;52.380;7.018;2023-06-22T05:11:37;20.00;99.90
39099;DHT22;24844;52.380;7.018;2023-06-22T05:14:03;20.20;99.90
39099;DHT22;24844;52.380;7.018;2023-06-22T05:16:29;20.60;99.90
39099;DHT22;24844;52.380;7.018;2023-06-22T05:18:55;21.10;99.90
39099;DHT22;24844;52.380;7.018;2023-06-22T05:21:26;21.60;99.90
39099;DHT22;24844;52.380;7.018;2023-06-22T05:23:53;22.00;99.90
39099;DHT22;24844;52.380;7.018;2023-06-22T05:26:22;22.10;99.90
39099;DHT22;24844;52.380;7.018;2023-06-22T05:28:48;22.40;99.90
39099;DHT22;24844;52.380;7.018;2023-06-22T05:31:14;22.50;99.90
39099;DHT22;24844;52.380;7.018;2023-06-22T05:33:42;22.20;99.90
39099;DHT22;24844;52.380;7.018;2023-06-22T05:36:08;22.10;99.90
39099;DHT22;24844;52.380;7.018;2023-06-22T05:38:34;22.20;99.90
39099;DHT22;24844;52.380;7.018;2023-06-22T05:41:00;22.50;99.90
39099;DHT22;24844;52.380;7.018;2023-06-22T05:43:27;22.50;99.90
39099;DHT22;24844;52.380;7.018;2023-06-22T05:45:54;22.70;99.90
39099;DHT22;24844;52.380;7.018;2023-06-22T05:48:20;22.60;99.90
39099;DHT22;24844;52.380;7.018;2023-06-22T05:50:46;22.80;99.90
39099;DHT22;24844;52.380;7.018;2023-06-22T05:53:11;22.90;99.90
39099;DHT22;24844;52.380;7.018;2023-06-22T05:55:37;23.10;99.90
39099;DHT22;24844;52.380;7.018;2023-06-22T05:58:03;23.20;99.90
39099;DHT22;24844;52.380;7.018;2023-06-22T06:00:31;23.40;99.90
39099;DHT22;24844;52.380;7.018;2023-06-22T06:02:57;23.80;99.90
39099;DHT22;24844;52.380;7.018;2023-06-22T06:05:29;23.80;99.90
39099;DHT22;24844;52.380;7.018;2023-06-22T06:07:55;24.00;99.90
39099;DHT22;24844;52.380;7.018;2023-06-22T06:10:21;24.20;99.90
39099;DHT22;24844;52.380;7.018;2023-06-22T06:12:46;24.30;99.90
39099;DHT22;24844;52.380;7.018;2023-06-22T06:15:12;24.50;99.90
39099;DHT22;24844;52.380;7.018;2023-06-22T06:17:51;24.80;99.90
39099;DHT22;24844;52.380;7.018;2023-06-22T06:20:22;25.10;99.90
39099;DHT22;24844;52.380;7.018;2023-06-22T06:22:49;25.40;99.90
39099;DHT22;24844;52.380;7.018;2023-06-22T06:25:15;25.60;99.90
39099;DHT22;24844;52.380;7.018;2023-06-22T06:27:45;25.90;99.30
39099;DHT22;24844;52.380;7.018;2023-06-22T06:30:13;25.60;99.50
39099;DHT22;24844;52.380;7.018;2023-06-22T06:32:39;25.80;99.40
39099;DHT22;24844;52.380;7.018;2023-06-22T06:35:07;26.20;98.90
39099;DHT22;24844;52.380;7.018;2023-06-22T06:37:36;26.20;99.00
39099;DHT22;24844;52.380;7.018;2023-06-22T06:40:04;26.40;98.60
39099;DHT22;24844;52.380;7.018;2023-06-22T06:42:31;26.80;97.80
39099;DHT22;24844;52.380;7.018;2023-06-22T06:44:56;27.00;97.80
39099;DHT22;24844;52.380;7.018;2023-06-22T06:47:22;27.20;96.50
39099;DHT22;24844;52.380;7.018;2023-06-22T06:49:48;27.40;96.00
39099;DHT22;24844;52.380;7.018;2023-06-22T06:52:13;27.70;95.80
39099;DHT22;24844;52.380;7.018;2023-06-22T06:54:39;27.80;95.20
39099;DHT22;24844;52.380;7.018;2023-06-22T06:57:04;28.30;93.40
39099;DHT22;24844;52.380;7.018;2023-06-22T06:59:30;28.30;93.90
39099;DHT22;24844;52.380;7.018;2023-06-22T07:01:56;28.40;93.90
39099;DHT22;24844;52.380;7.018;2023-06-22T07:04:21;28.70;92.90
39099;DHT22;24844;52.380;7.018;2023-06-22T07:06:47;29.40;91.30
39099;DHT22;24844;52.380;7.018;2023-06-22T07:09:13;29.60;90.50
39099;DHT22;24844;52.380;7.018;2023-06-22T07:11:38;29.90;89.10
39099;DHT22;24844;52.380;7.018;2023-06-22T07:14:04;29.80;89.20
39099;DHT22;24844;52.380;7.018;2023-06-22T07:16:30;29.90;87.90
39099;DHT22;24844;52.380;7.018;2023-06-22T07:18:56;29.80;86.60
39099;DHT22;24844;52.380;7.018;2023-06-22T07:21:22;29.70;87.10
39099;DHT22;24844;52.380;7.018;2023-06-22T07:23:47;30.00;86.30
39099;DHT22;24844;52.380;7.018;2023-06-22T07:26:13;30.30;85.60
39099;DHT22;24844;52.380;7.018;2023-06-22T07:28:39;30.20;85.00
39099;DHT22;24844;52.380;7.018;2023-06-22T07:31:06;30.00;85.80
39099;DHT22;24844;52.380;7.018;2023-06-22T07:33:32;30.40;85.80
39099;DHT22;24844;52.380;7.018;2023-06-22T07:35:57;31.10;83.70
39099;DHT22;24844;52.380;7.018;2023-06-22T07:38:23;31.20;83.80
39099;DHT22;24844;52.380;7.018;2023-06-22T07:40:49;31.70;82.90
39099;DHT22;24844;52.380;7.018;2023-06-22T07:43:16;32.20;81.70
39099;DHT22;24844;52.380;7.018;2023-06-22T07:45:48;32.60;78.90
39099;DHT22;24844;52.380;7.018;2023-06-22T07:48:19;32.60;77.20
39099;DHT22;24844;52.380;7.018;2023-06-22T07:50:45;32.30;77.60
39099;DHT22;24844;52.380;7.018;2023-06-22T07:53:10;32.30;77.50
39099;DHT22;24844;52.380;7.018;2023-06-22T07:55:36;33.10;76.40
39099;DHT22;24844;52.380;7.018;2023-06-22T07:58:02;32.60;76.00
39099;DHT22;24844;52.380;7.018;2023-06-22T08:00:27;32.80;75.10
39099;DHT22;24844;52.380;7.018;2023-06-22T08:02:53;32.90;75.20
39099;DHT22;24844;52.380;7.018;2023-06-22T08:05:19;33.30;74.80
39099;DHT22;24844;52.380;7.018;2023-06-22T08:07:44;33.50;74.70
39099;DHT22;24844;52.380;7.018;2023-06-22T08:10:11;34.20;72.70
39099;DHT22;24844;52.380;7.018;2023-06-22T08:12:37;33.70;72.10
39099;DHT22;24844;52.380;7.018;2023-06-22T08:15:03;33.40;73.00
39099;DHT22;24844;52.380;7.018;2023-06-22T08:17:28;33.00;72.80
39099;DHT22;24844;52.380;7.018;2023-06-22T08:19:54;33.80;72.20
39099;DHT22;24844;52.380;7.018;2023-06-22T08:22:20;34.70;71.70
39099;DHT22;24844;52.380;7.018;2023-06-22T08:24:45;35.60;69.50
39099;DHT22;24844;52.380;7.018;2023-06-22T08:27:11;34.90;70.10
39099;DHT22;24844;52.380;7.018;2023-06-22T08:29:39;34.10;69.20
39099;DHT22;24844;52.380;7.018;2023-06-22T08:32:04;34.30;69.20
39099;DHT22;24844;52.380;7.018;2023-06-22T08:34:30;35.10;68.30
39099;DHT22;24844;52.380;7.018;2023-06-22T08:36:56;34.50;68.60
39099;DHT22;24844;52.380;7.018;2023-06-22T08:39:22;34.40;68.00
39099;DHT22;24844;52.380;7.018;2023-06-22T08:41:48;34.40;67.40
39099;DHT22;24844;52.380;7.018;2023-06-22T08:44:14;32.60;69.30
39099;DHT22;24844;52.380;7.018;2023-06-22T08:46:39;32.80;70.50
39099;DHT22;24844;52.380;7.018;2023-06-22T08:49:06;33.40;70.20
39099;DHT22;24844;52.380;7.018;2023-06-22T08:51:32;33.50;69.90
39099;DHT22;24844;52.380;7.018;2023-06-22T08:53:58;33.10;70.20
39099;DHT22;24844;52.380;7.018;2023-06-22T08:56:25;32.60;70.70
39099;DHT22;24844;52.380;7.018;2023-06-22T08:58:51;32.50;70.90
39099;DHT22;24844;52.380;7.018;2023-06-22T09:01:17;32.90;70.60
39099;DHT22;24844;52.380;7.018;2023-06-22T09:03:42;32.20;71.50
39099;DHT22;24844;52.380;7.018;2023-06-22T09:06:08;32.90;70.60
39099;DHT22;24844;52.380;7.018;2023-06-22T09:08:36;33.10;71.30
39099;DHT22;24844;52.380;7.018;2023-06-22T09:11:02;33.90;69.40
39099;DHT22;24844;52.380;7.018;2023-06-22T09:13:30;33.60;68.70
39099;DHT22;24844;52.380;7.018;2023-06-22T09:15:57;33.60;68.80
39099;DHT22;24844;52.380;7.018;2023-06-22T09:18:22;33.40;68.80
39099;DHT22;24844;52.380;7.018;2023-06-22T09:20:48;32.80;69.70
39099;DHT22;24844;52.380;7.018;2023-06-22T09:23:14;32.00;70.40
39099;DHT22;24844;52.380;7.018;2023-06-22T09:25:40;31.30;71.80
39099;DHT22;24844;52.380;7.018;2023-06-22T09:28:07;31.20;72.60
39099;DHT22;24844;52.380;7.018;2023-06-22T09:30:33;31.00;72.50
39099;DHT22;24844;52.380;7.018;2023-06-22T09:32:58;30.40;73.20
39099;DHT22;24844;52.380;7.018;2023-06-22T09:35:26;30.40;74.30
39099;DHT22;24844;52.380;7.018;2023-06-22T09:37:52;30.30;74.10
39099;DHT22;24844;52.380;7.018;2023-06-22T09:40:17;30.50;74.00
39099;DHT22;24844;52.380;7.018;2023-06-22T09:42:43;30.40;74.10
39099;DHT22;24844;52.380;7.018;2023-06-22T09:45:09;30.20;74.50
39099;DHT22;24844;52.380;7.018;2023-06-22T09:47:35;29.90;75.90
39099;DHT22;24844;52.380;7.018;2023-06-22T09:50:00;29.70;76.30
39099;DHT22;24844;52.380;7.018;2023-06-22T09:52:26;30.00;75.20
39099;DHT22;24844;52.380;7.018;2023-06-22T09:54:52;29.80;75.20
39099;DHT22;24844;52.380;7.018;2023-06-22T09:57:17;30.10;75.00
39099;DHT22;24844;52.380;7.018;2023-06-22T09:59:43;30.00;75.80
39099;DHT22;24844;52.380;7.018;2023-06-22T10:02:08;30.20;74.70
39099;DHT22;24844;52.380;7.018;2023-06-22T10:04:35;30.10;73.90
39099;DHT22;24844;52.380;7.018;2023-06-22T10:07:01;29.70;75.00
39099;DHT22;24844;52.380;7.018;2023-06-22T10:09:27;29.10;76.30
39099;DHT22;24844;52.380;7.018;2023-06-22T10:11:53;29.30;76.20
39099;DHT22;24844;52.380;7.018;2023-06-22T10:14:18;29.10;77.00
39099;DHT22;24844;52.380;7.018;2023-06-22T10:16:44;29.20;77.20
39099;DHT22;24844;52.380;7.018;2023-06-22T10:19:10;29.20;77.20
39099;DHT22;24844;52.380;7.018;2023-06-22T10:21:35;29.00;77.50
39099;DHT22;24844;52.380;7.018;2023-06-22T10:24:01;29.10;77.60
39099;DHT22;24844;52.380;7.018;2023-06-22T10:26:32;29.10;78.20
39099;DHT22;24844;52.380;7.018;2023-06-22T10:28:58;29.30;77.80
39099;DHT22;24844;52.380;7.018;2023-06-22T10:31:23;29.40;77.70
39099;DHT22;24844;52.380;7.018;2023-06-22T10:33:49;29.60;76.50
39099;DHT22;24844;52.380;7.018;2023-06-22T10:36:15;29.40;77.40
39099;DHT22;24844;52.380;7.018;2023-06-22T10:38:41;29.10;77.80
39099;DHT22;24844;52.380;7.018;2023-06-22T10:41:06;29.00;78.20
39099;DHT22;24844;52.380;7.018;2023-06-22T10:43:32;28.80;77.90
39099;DHT22;24844;52.380;7.018;2023-06-22T10:45:58;28.90;78.10
39099;DHT22;24844;52.380;7.018;2023-06-22T10:48:23;28.80;78.50
39099;DHT22;24844;52.380;7.018;2023-06-22T10:50:49;28.80;78.80
39099;DHT22;24844;52.380;7.018;2023-06-22T10:53:14;28.60;79.00
39099;DHT22;24844;52.380;7.018;2023-06-22T10:55:40;28.40;79.80
39099;DHT22;24844;52.380;7.018;2023-06-22T10:58:06;28.20;81.20
39099;DHT22;24844;52.380;7.018;2023-06-22T11:00:32;28.50;81.40
39099;DHT22;24844;52.380;7.018;2023-06-22T11:02:57;28.50;80.80
39099;DHT22;24844;52.380;7.018;2023-06-22T11:05:24;28.30;81.40
39099;DHT22;24844;52.380;7.018;2023-06-22T11:07:49;28.10;82.40
39099;DHT22;24844;52.380;7.018;2023-06-22T11:10:16;27.90;83.30
39099;DHT22;24844;52.380;7.018;2023-06-22T11:12:41;28.10;83.50
39099;DHT22;24844;52.380;7.018;2023-06-22T11:15:08;28.20;83.40
39099;DHT22;24844;52.380;7.018;2023-06-22T11:17:35;28.10;83.90
39099;DHT22;24844;52.380;7.018;2023-06-22T11:20:01;28.10;83.50
39099;DHT22;24844;52.380;7.018;2023-06-22T11:22:27;28.30;82.40
39099;DHT22;24844;52.380;7.018;2023-06-22T11:24:52;27.90;83.50
39099;DHT22;24844;52.380;7.018;2023-06-22T11:27:18;28.10;83.90
39099;DHT22;24844;52.380;7.018;2023-06-22T11:29:44;28.40;83.10
39099;DHT22;24844;52.380;7.018;2023-06-22T11:32:09;28.30;84.40
39099;DHT22;24844;52.380;7.018;2023-06-22T11:34:35;28.30;84.50
39099;DHT22;24844;52.380;7.018;2023-06-22T11:37:01;28.50;85.00
39099;DHT22;24844;52.380;7.018;2023-06-22T11:39:26;28.70;83.90
39099;DHT22;24844;52.380;7.018;2023-06-22T11:41:53;28.70;83.60
39099;DHT22;24844;52.380;7.018;2023-06-22T11:44:19;28.30;84.30
39099;DHT22;24844;52.380;7.018;2023-06-22T11:46:44;28.40;84.40
39099;DHT22;24844;52.380;7.018;2023-06-22T11:49:10;28.40;84.50
39099;DHT22;24844;52.380;7.018;2023-06-22T11:51:35;28.30;84.60
39099;DHT22;24844;52.380;7.018;2023-06-22T11:54:01;28.40;84.70
39099;DHT22;24844;52.380;7.018;2023-06-22T11:56:28;28.40;85.20
39099;DHT22;24844;52.380;7.018;2023-06-22T11:58:54;28.20;86.00
39099;DHT22;24844;52.380;7.018;2023-06-22T12:01:21;27.90;87.10
39099;DHT22;24844;52.380;7.018;2023-06-22T12:03:47;28.30;86.40
39099;DHT22;24844;52.380;7.018;2023-06-22T12:06:13;28.40;85.50
39099;DHT22;24844;52.380;7.018;2023-06-22T12:08:39;28.30;85.60
39099;DHT22;24844;52.380;7.018;2023-06-22T12:11:06;27.80;87.00
39099;DHT22;24844;52.380;7.018;2023-06-22T12:13:31;27.90;87.10
39099;DHT22;24844;52.380;7.018;2023-06-22T12:15:57;27.80;87.50
39099;DHT22;24844;52.380;7.018;2023-06-22T12:18:23;27.60;88.40
39099;DHT22;24844;52.380;7.018;2023-06-22T12:20:48;27.50;88.80
39099;DHT22;24844;52.380;7.018;2023-06-22T12:23:14;27.40;88.60
39099;DHT22;24844;52.380;7.018;2023-06-22T12:25:40;27.40;88.70
39099;DHT22;24844;52.380;7.018;2023-06-22T12:28:06;27.40;88.90
39099;DHT22;24844;52.380;7.018;2023-06-22T12:30:34;27.40;89.10
39099;DHT22;24844;52.380;7.018;2023-06-22T12:33:00;27.50;89.40
39099;DHT22;24844;52.380;7.018;2023-06-22T12:35:25;27.20;90.10
39099;DHT22;24844;52.380;7.018;2023-06-22T12:37:51;27.30;90.30
39099;DHT22;24844;52.380;7.018;2023-06-22T12:40:17;26.70;91.10
39099;DHT22;24844;52.380;7.018;2023-06-22T12:42:42;26.60;91.70
39099;DHT22;24844;52.380;7.018;2023-06-22T12:45:08;26.60;92.10
39099;DHT22;24844;52.380;7.018;2023-06-22T12:47:35;26.90;91.90
39099;DHT22;24844;52.380;7.018;2023-06-22T12:50:00;26.70;92.20
39099;DHT22;24844;52.380;7.018;2023-06-22T12:52:26;26.70;92.30
39099;DHT22;24844;52.380;7.018;2023-06-22T12:54:51;26.70;92.50
39099;DHT22;24844;52.380;7.018;2023-06-22T12:57:18;26.70;92.50
39099;DHT22;24844;52.380;7.018;2023-06-22T12:59:45;26.50;93.00
39099;DHT22;24844;52.380;7.018;2023-06-22T13:02:10;26.60;93.20
39099;DHT22;24844;52.380;7.018;2023-06-22T13:04:37;26.60;93.20
39099;DHT22;24844;52.380;7.018;2023-06-22T13:07:03;26.50;93.50
39099;DHT22;24844;52.380;7.018;2023-06-22T13:09:30;26.40;93.80
39099;DHT22;24844;52.380;7.018;2023-06-22T13:11:56;26.40;94.10
39099;DHT22;24844;52.380;7.018;2023-06-22T13:14:22;26.60;94.10
39099;DHT22;24844;52.380;7.018;2023-06-22T13:16:47;26.30;94.70
39099;DHT22;24844;52.380;7.018;2023-06-22T13:19:13;26.30;95.10
39099;DHT22;24844;52.380;7.018;2023-06-22T13:21:40;25.90;96.00
39099;DHT22;24844;52.380;7.018;2023-06-22T13:24:06;26.00;96.90
39099;DHT22;24844;52.380;7.018;2023-06-22T13:26:31;25.90;97.60
39099;DHT22;24844;52.380;7.018;2023-06-22T13:28:57;25.70;98.50
39099;DHT22;24844;52.380;7.018;2023-06-22T13:31:23;25.40;99.60
39099;DHT22;24844;52.380;7.018;2023-06-22T13:33:49;25.10;99.90
39099;DHT22;24844;52.380;7.018;2023-06-22T13:36:17;24.90;99.90
39099;DHT22;24844;52.380;7.018;2023-06-22T13:38:43;24.60;99.90
39099;DHT22;24844;52.380;7.018;2023-06-22T13:41:09;24.30;99.90
39099;DHT22;24844;52.380;7.018;2023-06-22T13:43:34;24.00;99.90
39099;DHT22;24844;52.380;7.018;2023-06-22T13:46:00;23.50;99.90
39099;DHT22;24844;52.380;7.018;2023-06-22T13:48:25;22.80;99.90
39099;DHT22;24844;52.380;7.018;2023-06-22T13:50:52;22.40;99.90
39099;DHT22;24844;52.380;7.018;2023-06-22T13:53:17;22.20;99.90
39099;DHT22;24844;52.380;7.018;2023-06-22T13:55:43;22.10;99.90
39099;DHT22;24844;52.380;7.018;2023-06-22T13:58:09;21.80;99.90
39099;DHT22;24844;52.380;7.018;2023-06-22T14:00:34;21.90;99.90
39099;DHT22;24844;52.380;7.018;2023-06-22T14:03:00;21.80;99.90
39099;DHT22;24844;52.380;7.018;2023-06-22T14:05:25;22.00;99.90
39099;DHT22;24844;52.380;7.018;2023-06-22T14:07:51;21.90;99.90
39099;DHT22;24844;52.380;7.018;2023-06-22T14:10:17;22.10;99.90
39099;DHT22;24844;52.380;7.018;2023-06-22T14:12:44;22.20;99.90
39099;DHT22;24844;52.380;7.018;2023-06-22T14:15:10;21.90;99.90
39099;DHT22;24844;52.380;7.018;2023-06-22T14:17:36;21.80;99.90
39099;DHT22;24844;52.380;7.018;2023-06-22T14:20:01;21.70;99.90
39099;DHT22;24844;52.380;7.018;2023-06-22T14:22:27;21.80;99.90
39099;DHT22;24844;52.380;7.018;2023-06-22T14:24:55;21.70;99.90
39099;DHT22;24844;52.380;7.018;2023-06-22T14:27:23;21.60;99.90
39099;DHT22;24844;52.380;7.018;2023-06-22T14:29:48;21.60;99.90
39099;DHT22;24844;52.380;7.018;2023-06-22T14:32:14;21.60;99.90
39099;DHT22;24844;52.380;7.018;2023-06-22T14:34:39;21.70;99.90
39099;DHT22;24844;52.380;7.018;2023-06-22T14:37:06;21.70;99.90
39099;DHT22;24844;52.380;7.018;2023-06-22T14:39:33;21.80;99.90
39099;DHT22;24844;52.380;7.018;2023-06-22T14:41:59;21.80;99.90
39099;DHT22;24844;52.380;7.018;2023-06-22T14:44:26;21.70;99.90
39099;DHT22;24844;52.380;7.018;2023-06-22T14:46:54;21.80;99.90
39099;DHT22;24844;52.380;7.018;2023-06-22T14:49:20;21.90;99.90
39099;DHT22;24844;52.380;7.018;2023-06-22T14:51:46;22.20;99.90
39099;DHT22;24844;52.380;7.018;2023-06-22T14:54:11;21.80;99.90
39099;DHT22;24844;52.380;7.018;2023-06-22T14:56:37;22.00;99.90
39099;DHT22;24844;52.380;7.018;2023-06-22T14:59:03;22.30;99.90
39099;DHT22;24844;52.380;7.018;2023-06-22T15:01:28;22.40;99.90
39099;DHT22;24844;52.380;7.018;2023-06-22T15:03:54;22.00;99.90
39099;DHT22;24844;52.380;7.018;2023-06-22T15:06:21;22.50;99.90
39099;DHT22;24844;52.380;7.018;2023-06-22T15:08:46;22.10;99.90
39099;DHT22;24844;52.380;7.018;2023-06-22T15:11:12;21.90;99.90
39099;DHT22;24844;52.380;7.018;2023-06-22T15:13:41;21.80;99.90
39099;DHT22;24844;52.380;7.018;2023-06-22T15:16:07;21.80;99.90
39099;DHT22;24844;52.380;7.018;2023-06-22T15:18:34;21.80;99.90
39099;DHT22;24844;52.380;7.018;2023-06-22T15:21:01;22.40;99.90
39099;DHT22;24844;52.380;7.018;2023-06-22T15:23:30;22.30;99.90
39099;DHT22;24844;52.380;7.018;2023-06-22T15:25:57;21.90;99.90